Jordan, MT (59337)

6:19 AM MDT on August 31, 2015 (GMT -0600)
APRSWXNET | | Change Station
CLOSE
Current Station
Personal Weather Station
Location: Jordan, MT
Elevation: 0 ft
Nearby Weather Stations

Elev 0 ft 47.57 °N, 106.94 °W | Updated 3 hours ago

Clear
Clear
54 °F
Feels Like 54 °F
N
6
Wind Variable Wind from WSW
Gusts 8.0 mph

Today
High -- | Low -- °F
--% Chance of Precip.
Yesterday
High -- | Low -- °F
Precip. -- in
6:24 AM 7:49 PM
Waning Gibbous, 95% visible
Pressure 29.82 in
Visibility 10.0 miles
Clouds Clear
Dew Point 52 °F
Humidity 92%
Rainfall in
Snow Depth Not available.
UV 0 out of 12
Pollen 9.00 out of 12
Air Quality Not available.
Flu Activity Not available.
METAR KGGW 311153Z AUTO 25006KT 10SM CLR 11/07 A2984 RMK AO2 SLP098 60004 70014 T01060072 10167 20106 51018
Pressure 29.82 in
Visibility 10.0 miles
Clouds Clear
Dew Point 52 °F
Humidity 92%
Rainfall in
Snow Depth Not available.
UV 0 out of 12
Pollen 9.00 out of 12
Air Quality Not available.
Flu Activity Not available.
METAR KGGW 311153Z AUTO 25006KT 10SM CLR 11/07 A2984 RMK AO2 SLP098 60004 70014 T01060072 10167 20106 51018

10-Day Weather Forecast

×

Almanac

Astronomy

Aug. 31, 2015 Rise Set
Actual Time
Civil Twilight
Nautical Twilight
Astronomical Twilight
Moon
Length of Visible Light
Length of Day
Tomorrow will be .
, % of the Moon is Illuminated

Today's Extremes

State Highs State Lows

Community

WunderPhotos

Upload Photos

1,851,222 photos uploaded!

WunderBlogs® & News

Nearby

Air Quality

  Air Quality AQ Index Pollutant
Not available.

Snow Depth

Station Depth Elevation

Earthquake Activity

City Distance Mag. Time & Date
Minimum magnitude displayed is 2.5.

Coastal Water Temperatures

Place Temperature

Stations

Nearby Weather Stations

Station Location Temp. Windchill Dew Point Humidity Wind Precip. Elev Updated Type